Time;durP1;ratioP1;P1;durP2;ratioP2;P2;SDS_P1;SDS_P2;PMS_P1;PMS_P2;Temp;Humidity;BMP_temperature;BMP_pressure;BME280_temperature;BME280_humidity;BME280_pressure;Samples;Min_cycle;Max_cycle;Signal;HPM_P1;HPM_P2
2022/05/06 00:01:44;;;;;;;64.63;40.33;;;10.30;99.90;;;;;;4963335;28;20061;-85
2022/05/06 00:04:10;;;;;;;65.82;41.53;;;10.20;99.90;;;;;;4961153;28;20033;-85
2022/05/06 00:06:36;;;;;;;63.83;39.80;;;10.30;99.90;;;;;;4961487;28;20023;-85
2022/05/06 00:09:03;;;;;;;59.80;37.05;;;10.20;99.90;;;;;;4961750;28;20038;-85
2022/05/06 00:11:29;;;;;;;59.47;39.15;;;10.20;99.90;;;;;;4960976;28;20030;-86
2022/05/06 00:13:55;;;;;;;62.40;39.95;;;10.10;99.90;;;;;;4958558;28;20046;-85
2022/05/06 00:16:22;;;;;;;61.30;37.22;;;10.10;99.90;;;;;;4967564;28;20027;-86
2022/05/06 00:18:48;;;;;;;61.22;39.50;;;10.00;99.90;;;;;;4956582;28;20059;-86
2022/05/06 00:21:14;;;;;;;56.83;38.78;;;10.00;99.90;;;;;;4959694;28;20091;-86
2022/05/06 00:23:40;;;;;;;65.95;40.53;;;10.00;99.90;;;;;;4961134;28;20551;-86
2022/05/06 00:26:05;;;;;;;62.85;42.05;;;9.90;99.90;;;;;;4961855;28;20031;-85
2022/05/06 00:28:31;;;;;;;65.72;39.92;;;9.90;99.90;;;;;;4959414;28;20035;-85
2022/05/06 00:30:57;;;;;;;68.30;43.33;;;9.90;99.90;;;;;;4963691;28;20721;-85
2022/05/06 00:33:26;;;;;;;73.05;44.70;;;9.90;99.90;;;;;;4962694;28;20090;-85
2022/05/06 00:35:56;;;;;;;72.50;44.28;;;9.80;99.90;;;;;;4955303;28;20083;-86
2022/05/06 00:38:22;;;;;;;62.45;40.92;;;9.80;99.90;;;;;;4965212;28;20591;-86
2022/05/06 00:40:48;;;;;;;65.95;41.55;;;9.80;99.90;;;;;;4961046;28;20023;-86
2022/05/06 00:43:13;;;;;;;62.35;40.63;;;9.70;99.90;;;;;;4956807;28;20035;-86
2022/05/06 00:45:56;;;;;;;65.95;41.63;;;9.70;99.90;;;;;;4962640;28;20031;-85
2022/05/06 00:48:23;;;;;;;;;;;9.70;99.90;;;;;;4977285;28;20090;-85
2022/05/06 00:50:50;;;;;;;65.10;39.30;;;9.60;99.90;;;;;;4975780;28;19917;-86
2022/05/06 00:53:16;;;;;;;71.47;42.60;;;9.60;99.90;;;;;;4962566;28;20037;-85
2022/05/06 00:55:42;;;;;;;70.88;43.22;;;9.60;99.90;;;;;;4957864;28;20476;-85
2022/05/06 00:58:07;;;;;;;63.40;40.15;;;9.60;99.90;;;;;;4965553;28;20033;-85
2022/05/06 01:00:33;;;;;;;59.78;38.42;;;9.60;99.90;;;;;;4954713;28;20023;-84
2022/05/06 01:03:00;;;;;;;75.57;45.47;;;9.50;99.90;;;;;;4964127;28;20050;-85
2022/05/06 01:05:26;;;;;;;70.38;42.45;;;9.50;99.90;;;;;;4964059;28;20065;-85
2022/05/06 01:07:52;;;;;;;69.95;42.05;;;9.50;99.90;;;;;;4958735;28;20487;-85
2022/05/06 01:10:20;;;;;;;68.57;43.20;;;9.50;99.90;;;;;;4955876;28;20391;-85
2022/05/06 01:12:47;;;;;;;68.90;42.58;;;9.50;99.90;;;;;;4960641;28;20057;-85
2022/05/06 01:15:24;;;;;;;66.90;40.42;;;9.50;99.90;;;;;;4963379;28;20023;-85
2022/05/06 01:17:52;;;;;;;67.05;40.05;;;9.50;99.90;;;;;;4986096;28;20177;-85
2022/05/06 01:20:19;;;;;;;69.78;40.30;;;9.50;99.90;;;;;;4960694;28;20094;-85
2022/05/06 01:22:46;;;;;;;66.63;40.72;;;9.40;99.90;;;;;;4968817;28;20050;-85
2022/05/06 01:25:12;;;;;;;73.07;41.30;;;9.40;99.90;;;;;;4965185;28;20023;-84
2022/05/06 01:27:43;;;;;;;75.13;41.40;;;9.40;99.90;;;;;;4972188;28;20027;-86
2022/05/06 01:30:12;;;;;;;69.28;38.30;;;9.40;99.90;;;;;;4964241;28;20078;-85
2022/05/06 01:32:38;;;;;;;64.65;39.33;;;9.40;99.90;;;;;;4962493;28;20047;-85
2022/05/06 01:35:04;;;;;;;63.63;37.38;;;9.40;99.90;;;;;;4961549;28;20037;-85
2022/05/06 01:37:34;;;;;;;61.47;34.20;;;9.30;99.90;;;;;;4962491;28;20406;-86
2022/05/06 01:40:02;;;;;;;55.13;33.17;;;9.30;99.90;;;;;;4958227;28;20471;-86
2022/05/06 01:42:31;;;;;;;58.25;35.60;;;9.30;99.90;;;;;;4962318;28;20049;-85
2022/05/06 01:44:57;;;;;;;69.45;38.28;;;9.20;99.90;;;;;;4968123;28;20061;-86
2022/05/06 01:47:26;;;;;;;76.00;39.83;;;9.20;99.90;;;;;;4966465;28;20090;-85
2022/05/06 01:49:53;;;;;;;69.53;39.85;;;9.10;99.90;;;;;;4963593;28;20027;-85
2022/05/06 01:52:19;;;;;;;69.90;40.03;;;9.10;99.90;;;;;;4957698;28;20042;-85
2022/05/06 01:54:46;;;;;;;61.83;34.60;;;9.10;99.90;;;;;;4964290;28;20051;-86
2022/05/06 01:57:12;;;;;;;61.10;34.83;;;9.10;99.90;;;;;;4962464;28;20114;-85
2022/05/06 01:59:38;;;;;;;54.67;32.13;;;9.10;99.90;;;;;;4963348;28;20106;-85
2022/05/06 02:02:04;;;;;;;62.33;34.55;;;9.00;99.90;;;;;;4960944;28;20019;-85
2022/05/06 02:07:13;;;;;;;58.85;34.50;;;9.00;99.90;;;;;;4961720;28;20117;-85
2022/05/06 02:09:38;;;;;;;66.95;37.47;;;9.10;99.90;;;;;;4967204;28;20126;-85
2022/05/06 02:12:04;;;;;;;60.35;32.47;;;9.20;99.90;;;;;;4964211;28;20152;-85
2022/05/06 02:14:30;;;;;;;55.15;32.85;;;9.30;99.90;;;;;;4964434;28;20058;-85
2022/05/06 02:16:55;;;;;;;58.50;33.72;;;9.30;99.90;;;;;;4960258;28;20444;-85
2022/05/06 02:19:21;;;;;;;69.40;36.80;;;9.40;99.90;;;;;;4961896;28;20131;-85
2022/05/06 02:21:47;;;;;;;67.25;37.17;;;9.50;99.90;;;;;;4964223;28;20023;-85
2022/05/06 02:24:12;;;;;;;71.78;39.20;;;9.50;99.90;;;;;;4968817;28;20495;-85
2022/05/06 02:26:38;;;;;;;68.22;39.10;;;9.60;99.90;;;;;;4958092;28;20034;-86
2022/05/06 02:29:04;;;;;;;73.28;40.55;;;9.60;99.90;;;;;;4956551;28;20027;-86
2022/05/06 02:34:18;;;;;;;73.28;39.75;;;9.80;99.90;;;;;;4980781;28;20041;-85
2022/05/06 02:36:44;;;;;;;79.05;40.95;;;10.00;99.90;;;;;;4971136;28;20049;-85
2022/05/06 02:39:10;;;;;;;87.45;42.90;;;10.00;99.90;;;;;;4970033;28;20030;-86
2022/05/06 02:41:35;;;;;;;84.93;43.10;;;10.10;99.90;;;;;;4971918;28;20509;-85
2022/05/06 02:44:04;;;;;;;80.80;41.47;;;10.20;99.90;;;;;;4969221;28;20041;-85
2022/05/06 02:46:30;;;;;;;80.25;40.92;;;10.30;99.90;;;;;;4967163;28;20307;-85
2022/05/06 02:48:56;;;;;;;86.13;40.47;;;10.40;99.90;;;;;;4968311;28;20023;-86
2022/05/06 02:51:21;;;;;;;79.43;39.85;;;10.40;99.90;;;;;;4983781;28;20022;-85
2022/05/06 02:53:47;;;;;;;80.75;39.83;;;10.40;99.90;;;;;;4960898;28;20034;-85
2022/05/06 02:56:12;;;;;;;75.38;37.20;;;10.40;99.90;;;;;;4961043;28;20022;-85
2022/05/06 02:58:38;;;;;;;87.03;37.22;;;10.40;99.90;;;;;;4969251;28;20142;-85
2022/05/06 03:01:03;;;;;;;85.35;39.00;;;10.40;99.90;;;;;;4960558;28;20023;-85
2022/05/06 03:03:33;;;;;;;88.25;34.75;;;10.40;99.90;;;;;;4969811;28;20026;-85
2022/05/06 03:05:59;;;;;;;93.95;36.42;;;10.30;99.90;;;;;;4965678;28;20034;-85
2022/05/06 03:08:24;;;;;;;105.45;36.35;;;10.30;99.90;;;;;;4969880;28;20040;-85
2022/05/06 03:10:50;;;;;;;95.70;36.28;;;10.30;99.90;;;;;;4961004;28;20042;-85
2022/05/06 03:13:15;;;;;;;94.65;34.33;;;10.30;99.90;;;;;;4964527;28;20034;-85
2022/05/06 03:15:42;;;;;;;109.13;37.78;;;10.30;99.90;;;;;;4967136;28;20030;-85
2022/05/06 03:18:08;;;;;;;87.18;34.83;;;10.30;99.90;;;;;;4963714;28;20022;-85
2022/05/06 03:20:33;;;;;;;108.50;34.33;;;10.30;99.90;;;;;;4963158;28;20026;-85
2022/05/06 03:22:59;;;;;;;114.80;36.40;;;10.40;99.90;;;;;;4969509;28;20030;-85
2022/05/06 03:25:25;;;;;;;130.40;38.75;;;10.40;99.90;;;;;;4968658;28;20109;-85
2022/05/06 03:27:59;;;;;;;102.63;36.20;;;10.40;99.90;;;;;;4966338;28;20022;-85
2022/05/06 03:30:27;;;;;;;97.68;33.10;;;10.40;99.90;;;;;;4959014;28;20074;-85
2022/05/06 03:32:55;;;;;;;85.78;33.20;;;10.40;99.90;;;;;;4986551;28;20125;-85
2022/05/06 03:35:21;;;;;;;91.68;33.30;;;10.40;99.90;;;;;;4959290;28;20030;-85
2022/05/06 03:37:46;;;;;;;110.72;34.47;;;10.40;99.90;;;;;;4970664;28;20030;-85
2022/05/06 03:40:12;;;;;;;107.95;31.60;;;10.40;99.90;;;;;;4958584;28;20105;-86
2022/05/06 03:42:38;;;;;;;102.82;32.40;;;10.40;99.90;;;;;;4980225;28;20022;-85
2022/05/06 03:45:04;;;;;;;117.88;32.00;;;10.30;99.90;;;;;;4964025;28;20034;-85
2022/05/06 03:47:30;;;;;;;145.52;33.97;;;10.30;99.90;;;;;;4975229;28;20992;-85
2022/05/06 03:52:39;;;;;;;112.93;33.58;;;10.30;99.90;;;;;;4975710;28;20042;-85
2022/05/06 03:55:05;;;;;;;110.10;32.28;;;10.30;99.90;;;;;;4966877;28;20019;-85
2022/05/06 03:57:31;;;;;;;138.25;34.75;;;10.20;99.90;;;;;;4964627;28;20030;-85
2022/05/06 03:59:56;;;;;;;128.88;31.27;;;10.30;99.90;;;;;;4966905;28;20022;-86
2022/05/06 04:02:22;;;;;;;123.22;29.85;;;10.20;99.90;;;;;;4963524;28;20039;-85
2022/05/06 04:04:47;;;;;;;94.20;29.13;;;10.20;99.90;;;;;;4980232;28;20030;-85
2022/05/06 04:07:14;;;;;;;123.15;27.42;;;10.20;99.90;;;;;;4967582;28;20030;-85
2022/05/06 04:09:41;;;;;;;140.60;27.23;;;10.10;99.90;;;;;;4963098;28;20046;-85
2022/05/06 04:12:07;;;;;;;100.38;26.33;;;10.10;99.90;;;;;;4963745;28;20042;-85
2022/05/06 04:14:34;;;;;;;89.72;26.15;;;10.00;99.90;;;;;;4965065;28;20116;-85
2022/05/06 04:17:00;;;;;;;95.53;26.50;;;9.90;99.90;;;;;;4961638;28;20094;-85
2022/05/06 04:19:25;;;;;;;94.80;25.48;;;9.90;99.90;;;;;;4961474;28;20026;-85
2022/05/06 04:24:35;;;;;;;106.55;24.42;;;9.90;99.90;;;;;;4977465;28;20038;-86
2022/05/06 04:27:00;;;;;;;107.93;21.52;;;9.80;99.90;;;;;;4969277;28;20117;-86
2022/05/06 04:29:26;;;;;;;85.60;23.38;;;9.80;99.90;;;;;;4972901;28;20034;-86
2022/05/06 04:31:52;;;;;;;78.78;23.65;;;9.70;99.90;;;;;;4967412;28;20133;-86
2022/05/06 04:34:17;;;;;;;67.28;20.88;;;9.60;99.90;;;;;;4984257;28;20109;-85
2022/05/06 04:36:43;;;;;;;88.57;22.63;;;9.70;99.90;;;;;;4967100;28;20113;-86
2022/05/06 04:39:08;;;;;;;59.88;20.85;;;9.60;99.90;;;;;;4963244;28;20483;-86
2022/05/06 04:41:34;;;;;;;75.20;20.90;;;9.60;99.90;;;;;;4962874;28;20117;-86
2022/05/06 04:43:59;;;;;;;51.80;22.30;;;9.70;99.90;;;;;;4960729;28;20031;-86
2022/05/06 04:46:25;;;;;;;137.43;26.50;;;9.70;99.90;;;;;;4969634;28;20034;-86
2022/05/06 04:48:50;;;;;;;65.60;24.63;;;9.80;99.90;;;;;;4967181;28;20088;-85
2022/05/06 04:51:16;;;;;;;78.90;23.77;;;9.80;99.90;;;;;;4965851;28;20031;-86
2022/05/06 04:53:41;;;;;;;73.68;21.02;;;9.80;99.90;;;;;;4968440;28;20041;-86
2022/05/06 04:56:07;;;;;;;87.20;21.35;;;9.80;99.90;;;;;;4969146;28;20037;-86
2022/05/06 04:58:32;;;;;;;75.68;20.63;;;9.80;99.90;;;;;;4972780;28;20121;-87
2022/05/06 05:00:58;;;;;;;87.18;21.23;;;9.70;99.90;;;;;;4959558;28;20023;-84
2022/05/06 05:03:23;;;;;;;111.90;22.33;;;9.70;99.90;;;;;;4971616;28;20030;-85
2022/05/06 05:05:49;;;;;;;80.47;23.13;;;9.70;99.90;;;;;;4970787;28;20104;-85
2022/05/06 05:08:14;;;;;;;54.22;22.30;;;9.70;99.90;;;;;;4965136;28;20022;-85
2022/05/06 05:10:40;;;;;;;100.78;21.60;;;9.70;99.90;;;;;;4962939;28;20124;-87
2022/05/06 05:13:06;;;;;;;77.55;21.13;;;9.70;99.90;;;;;;4972748;28;20100;-86
2022/05/06 05:15:31;;;;;;;74.00;20.95;;;9.70;99.90;;;;;;4976599;28;20084;-83
2022/05/06 05:17:57;;;;;;;79.57;22.85;;;9.60;99.90;;;;;;4969194;28;20097;-85
2022/05/06 05:20:23;;;;;;;102.53;24.27;;;9.60;99.90;;;;;;4969152;28;20393;-85
2022/05/06 05:22:48;;;;;;;91.05;20.83;;;9.60;99.90;;;;;;4982554;28;20030;-85
2022/05/06 05:25:14;;;;;;;92.20;21.92;;;9.60;99.90;;;;;;4967235;28;20026;-85
2022/05/06 05:27:40;;;;;;;82.80;21.02;;;9.70;99.90;;;;;;4974159;28;20486;-86
2022/05/06 05:30:08;;;;;;;78.45;21.98;;;9.70;99.90;;;;;;4966112;28;20137;-85
2022/05/06 05:32:34;;;;;;;126.38;24.90;;;9.80;99.90;;;;;;4966355;28;20051;-85
2022/05/06 05:35:00;;;;;;;113.30;25.27;;;9.80;99.90;;;;;;4970355;28;20300;-83
2022/05/06 05:37:26;;;;;;;100.13;24.88;;;9.90;99.90;;;;;;4984622;28;20109;-85
2022/05/06 05:39:52;;;;;;;111.60;23.33;;;10.00;99.90;;;;;;4970349;28;20037;-85
2022/05/06 05:42:21;;;;;;;65.90;22.27;;;10.20;99.90;;;;;;4968527;28;20027;-85
2022/05/06 05:50:15;;;;;;;64.60;20.30;;;10.20;99.90;;;;;;4982225;28;20081;-85
2022/05/06 05:52:41;;;;;;;79.38;21.00;;;10.30;99.90;;;;;;4965309;28;20035;-85
2022/05/06 05:55:07;;;;;;;89.93;22.42;;;10.50;99.90;;;;;;4971515;28;20058;-85
2022/05/06 05:57:32;;;;;;;92.05;20.55;;;10.50;99.90;;;;;;4970754;28;20041;-85
2022/05/06 05:59:58;;;;;;;76.35;19.55;;;10.50;99.90;;;;;;4971036;28;20018;-85
2022/05/06 06:02:23;;;;;;;56.83;17.63;;;10.50;99.90;;;;;;4969632;28;20134;-85
2022/05/06 06:04:49;;;;;;;82.78;19.95;;;10.60;99.90;;;;;;4971351;28;20026;-85
2022/05/06 06:07:15;;;;;;;51.78;18.50;;;10.60;99.90;;;;;;4968944;28;20553;-85
2022/05/06 06:09:40;;;;;;;92.75;18.80;;;10.60;99.90;;;;;;4980340;28;20380;-85
2022/05/06 06:12:06;;;;;;;85.25;21.45;;;10.70;99.90;;;;;;4967329;28;20105;-85
2022/05/06 06:14:32;;;;;;;54.13;18.52;;;10.80;99.90;;;;;;4971249;28;20117;-84
2022/05/06 06:16:57;;;;;;;75.00;22.33;;;10.80;99.90;;;;;;4968723;28;20126;-85
2022/05/06 06:19:23;;;;;;;66.82;21.67;;;10.90;99.90;;;;;;4962969;28;20027;-85
2022/05/06 06:21:48;;;;;;;67.70;20.77;;;11.00;99.90;;;;;;4967955;28;20019;-84
2022/05/06 06:24:14;;;;;;;72.18;20.45;;;11.10;99.90;;;;;;4964268;28;20036;-85
2022/05/06 06:26:40;;;;;;;58.13;17.08;;;11.20;99.90;;;;;;4987232;28;20109;-85
2022/05/06 06:29:06;;;;;;;78.32;18.73;;;11.20;99.90;;;;;;4963929;28;20026;-84
2022/05/06 06:31:32;;;;;;;41.10;16.40;;;11.20;99.90;;;;;;4965391;28;20117;-84
2022/05/06 06:34:00;;;;;;;67.07;19.02;;;11.30;99.90;;;;;;4965283;28;20082;-84
2022/05/06 06:36:29;;;;;;;44.88;16.75;;;11.30;99.90;;;;;;4966596;28;20084;-84
2022/05/06 06:38:55;;;;;;;48.72;15.88;;;11.40;99.90;;;;;;4969474;28;20027;-85
2022/05/06 06:41:20;;;;;;;34.15;15.35;;;11.40;99.90;;;;;;4977182;28;20046;-85
2022/05/06 06:43:50;;;;;;;29.67;14.90;;;11.40;99.90;;;;;;4966416;28;20030;-85
2022/05/06 06:46:16;;;;;;;31.55;14.93;;;11.40;99.90;;;;;;4972050;28;20470;-85
2022/05/06 06:48:42;;;;;;;38.03;14.32;;;11.40;99.90;;;;;;4969603;28;20058;-85
2022/05/06 06:51:08;;;;;;;51.35;14.68;;;11.30;99.90;;;;;;4971850;28;20382;-83
2022/05/06 06:53:34;;;;;;;50.67;15.32;;;11.40;99.90;;;;;;4969306;28;20043;-86
2022/05/06 06:55:59;;;;;;;47.63;13.73;;;11.40;99.90;;;;;;4969653;28;20027;-86
2022/05/06 06:58:25;;;;;;;39.50;14.70;;;11.30;99.90;;;;;;4973180;28;20036;-86
2022/05/06 07:00:52;;;;;;;41.17;15.18;;;11.20;99.90;;;;;;4971363;28;20747;-85
2022/05/06 07:03:18;;;;;;;30.58;13.98;;;11.20;99.90;;;;;;4969478;28;20033;-85
2022/05/06 07:13:58;;;;;;;90.10;19.25;;;11.20;99.90;;;;;;4981267;28;20518;-88
2022/05/06 07:16:23;;;;;;;54.08;17.55;;;11.30;99.90;;;;;;4967926;28;20034;-87
2022/05/06 07:18:50;;;;;;;69.72;18.00;;;11.30;99.90;;;;;;4971304;28;20033;-85
2022/05/06 07:21:15;;;;;;;45.30;16.80;;;11.30;99.90;;;;;;4966697;28;20023;-87
2022/05/06 07:23:41;;;;;;;38.42;18.60;;;11.40;99.90;;;;;;4962433;28;20137;-86
2022/05/06 07:26:06;;;;;;;34.67;19.50;;;11.40;99.90;;;;;;4978976;28;20391;-87
2022/05/06 07:28:32;;;;;;;34.38;18.92;;;11.40;99.90;;;;;;4973688;28;20023;-86
2022/05/06 07:30:57;;;;;;;38.90;20.40;;;11.40;99.90;;;;;;4972766;28;20030;-87
2022/05/06 07:33:23;;;;;;;43.30;18.10;;;11.50;99.90;;;;;;4965440;28;20055;-86
2022/05/06 07:35:48;;;;;;;32.80;16.40;;;11.50;99.90;;;;;;4966977;28;20042;-87
2022/05/06 07:38:14;;;;;;;30.10;15.95;;;11.60;99.90;;;;;;4963824;28;20031;-88
2022/05/06 07:40:40;;;;;;;29.88;17.08;;;11.70;99.90;;;;;;4960547;28;20479;-87
2022/05/06 07:43:05;;;;;;;27.80;16.63;;;11.80;99.90;;;;;;4957419;28;20027;-87
2022/05/06 07:45:31;;;;;;;28.80;16.20;;;11.90;99.90;;;;;;4966397;28;20058;-87
2022/05/06 07:47:57;;;;;;;27.10;15.60;;;11.90;99.90;;;;;;4967672;28;20058;-87
2022/05/06 07:50:23;;;;;;;31.58;16.48;;;12.00;99.90;;;;;;4961452;28;20047;-87
2022/05/06 07:52:50;;;;;;;30.90;17.75;;;12.00;99.90;;;;;;4958693;28;20759;-86
2022/05/06 07:55:19;;;;;;;30.48;17.00;;;12.10;99.90;;;;;;4963772;28;20115;-87
2022/05/06 07:57:45;;;;;;;25.63;14.10;;;12.10;99.90;;;;;;4965622;28;20086;-87
2022/05/06 08:00:11;;;;;;;23.52;14.23;;;12.20;99.90;;;;;;4961075;28;20035;-87
2022/05/06 08:05:22;;;;;;;22.55;13.68;;;12.30;99.90;;;;;;4963774;28;20042;-87
2022/05/06 08:07:47;;;;;;;21.55;14.02;;;12.30;99.90;;;;;;4965790;28;20083;-87
2022/05/06 08:10:14;;;;;;;23.80;13.95;;;12.40;99.90;;;;;;4959077;28;20118;-86
2022/05/06 08:12:39;;;;;;;22.55;14.00;;;12.60;99.90;;;;;;4961902;28;20035;-85
2022/05/06 08:15:05;;;;;;;21.00;12.63;;;12.80;99.90;;;;;;4957036;28;20030;-86
2022/05/06 08:17:30;;;;;;;20.50;13.20;;;13.00;99.90;;;;;;4972628;28;20035;-87
2022/05/06 08:19:56;;;;;;;19.83;12.20;;;13.20;99.90;;;;;;4966478;28;20110;-86
2022/05/06 08:22:21;;;;;;;18.35;12.20;;;13.50;99.90;;;;;;4969837;28;20035;-86
2022/05/06 08:24:48;;;;;;;18.23;13.18;;;13.80;99.90;;;;;;4969145;28;20542;-86
2022/05/06 08:27:13;;;;;;;12.95;9.90;;;14.00;99.90;;;;;;4966638;28;20086;-86
2022/05/06 08:29:40;;;;;;;13.20;9.82;;;14.30;99.90;;;;;;4968482;28;20467;-85
2022/05/06 08:32:06;;;;;;;14.45;10.35;;;14.60;99.90;;;;;;4967436;28;20384;-86
2022/05/06 08:34:31;;;;;;;14.35;10.85;;;14.80;99.90;;;;;;4967080;28;20035;-87
2022/05/06 08:36:57;;;;;;;14.45;11.07;;;15.10;99.90;;;;;;4966087;28;20618;-87
2022/05/06 08:39:22;;;;;;;12.27;9.80;;;15.20;99.90;;;;;;4968665;28;20034;-85
2022/05/06 08:41:49;;;;;;;13.80;10.10;;;15.20;99.90;;;;;;4957372;28;20027;-85
2022/05/06 08:52:43;;;;;;;12.55;9.75;;;15.70;99.90;;;;;;4966330;28;20070;-86
2022/05/06 08:55:09;;;;;;;14.90;10.73;;;15.90;99.90;;;;;;4961492;28;20023;-85
2022/05/06 08:57:35;;;;;;;15.55;10.85;;;15.80;99.90;;;;;;4968144;28;20073;-86
2022/05/06 09:00:01;;;;;;;16.77;11.98;;;15.70;99.90;;;;;;4969573;28;20395;-85
2022/05/06 09:02:27;;;;;;;13.27;10.45;;;15.70;99.90;;;;;;4972826;28;20348;-86
2022/05/06 09:04:52;;;;;;;13.63;10.82;;;15.70;99.90;;;;;;4967719;28;20042;-85
2022/05/06 09:07:21;;;;;;;15.18;11.43;;;15.50;99.90;;;;;;4964210;28;20034;-86
2022/05/06 09:10:13;;;;;;;16.27;11.82;;;15.50;99.90;;;;;;4969554;28;20113;-87
2022/05/06 09:12:44;;;;;;;17.17;11.75;;;15.70;99.90;;;;;;4972311;28;20039;-87
2022/05/06 09:17:56;;;;;;;15.30;11.30;;;15.90;99.90;;;;;;4964480;28;20089;-88
2022/05/06 09:20:23;;;;;;;20.13;12.68;;;15.90;99.90;;;;;;4967968;28;20022;-87
2022/05/06 09:22:52;;;;;;;15.15;12.35;;;16.10;99.90;;;;;;4969441;28;20031;-87
2022/05/06 09:25:34;;;;;;;23.65;13.25;;;16.20;99.90;;;;;;4969352;28;20452;-87
2022/05/06 09:28:00;;;;;;;17.40;12.55;;;16.10;99.90;;;;;;4960969;28;20046;-87
2022/05/06 09:30:25;;;;;;;14.82;11.60;;;16.10;99.90;;;;;;4970384;28;20031;-87
2022/05/06 09:32:51;;;;;;;18.70;12.57;;;15.90;99.90;;;;;;4971396;28;20051;-87
2022/05/06 09:35:18;;;;;;;16.95;12.98;;;15.70;99.90;;;;;;4967460;28;20059;-87
2022/05/06 09:37:51;;;;;;;16.85;12.93;;;15.70;99.90;;;;;;4956943;28;20082;-86
2022/05/06 09:40:19;;;;;;;13.93;10.95;;;15.70;99.90;;;;;;4962321;28;20019;-87
2022/05/06 09:43:04;;;;;;;13.80;11.35;;;15.70;99.90;;;;;;4961175;28;20031;-87
2022/05/06 09:45:39;;;;;;;16.60;11.88;;;15.80;99.90;;;;;;4983083;28;20038;-87
2022/05/06 09:48:08;;;;;;;17.45;11.77;;;16.00;99.90;;;;;;4966047;28;20035;-86
2022/05/06 09:50:47;;;;;;;14.25;11.43;;;16.20;99.90;;;;;;4961078;28;20447;-86
2022/05/06 09:53:15;;;;;;;17.73;11.50;;;16.40;99.90;;;;;;4981639;28;20483;-86
2022/05/06 09:55:46;;;;;;;15.27;10.95;;;16.60;99.90;;;;;;4965775;28;20105;-87
2022/05/06 09:58:13;;;;;;;12.02;9.52;;;16.60;99.90;;;;;;4969356;28;20027;-86
2022/05/06 10:00:39;;;;;;;12.95;9.52;;;16.60;99.90;;;;;;4968858;28;20031;-86
2022/05/06 10:03:06;;;;;;;14.18;11.20;;;16.60;99.90;;;;;;4960640;28;20024;-86
2022/05/06 10:05:36;;;;;;;15.00;10.98;;;16.70;99.90;;;;;;4971317;28;20052;-86
2022/05/06 10:08:06;;;;;;;13.57;10.02;;;16.90;99.90;;;;;;4971591;28;20031;-86
2022/05/06 10:10:38;;;;;;;12.38;8.90;;;17.00;99.90;;;;;;4964610;28;20035;-86
2022/05/06 10:13:17;;;;;;;34.83;8.55;;;17.10;99.90;;;;;;4963578;28;20045;-87
2022/05/06 10:15:46;;;;;;;10.10;7.35;;;17.20;99.90;;;;;;4962768;28;20039;-87
2022/05/06 10:18:32;;;;;;;9.50;7.78;;;17.20;99.90;;;;;;4966407;28;20554;-86
2022/05/06 10:20:57;;;;;;;8.52;6.10;;;17.20;99.90;;;;;;4963603;28;20026;-87
2022/05/06 10:23:45;;;;;;;8.00;6.60;;;17.40;99.90;;;;;;4966128;28;20023;-87
2022/05/06 10:26:33;;;;;;;8.65;6.35;;;17.50;99.90;;;;;;4963972;28;20027;-87
2022/05/06 10:34:29;;;;;;;7.63;6.25;;;17.40;99.90;;;;;;4982483;28;20089;-87
2022/05/06 10:36:56;;;;;;;9.65;7.22;;;17.60;99.90;;;;;;4972340;28;20077;-86
2022/05/06 10:39:23;;;;;;;7.28;5.88;;;17.70;99.90;;;;;;4966931;28;20368;-88
2022/05/06 10:42:17;;;;;;;7.55;5.90;;;17.90;99.90;;;;;;4962789;28;20081;-87
2022/05/06 10:44:50;;;;;;;7.78;6.03;;;17.90;99.90;;;;;;4964669;28;20420;-88
2022/05/06 10:47:15;;;;;;;7.40;4.90;;;18.00;99.90;;;;;;4966925;28;20434;-88
2022/05/06 10:49:43;;;;;;;4.13;3.28;;;18.20;99.90;;;;;;4970901;28;20030;-88
2022/05/06 10:52:19;;;;;;;5.57;3.90;;;18.30;99.90;;;;;;4972250;28;20018;-89
2022/05/06 10:54:49;;;;;;;5.40;3.35;;;18.30;99.90;;;;;;4978543;28;20168;-87
2022/05/06 10:57:16;;;;;;;5.30;3.50;;;18.50;99.70;;;;;;4968156;28;20121;-88
2022/05/06 10:59:51;;;;;;;3.63;3.10;;;18.70;98.90;;;;;;4979281;28;20026;-88
2022/05/06 11:02:21;;;;;;;7.18;5.15;;;18.80;98.60;;;;;;4964277;28;20485;-86
2022/05/06 11:04:50;;;;;;;6.95;4.82;;;18.90;98.50;;;;;;4967830;28;20030;-87
2022/05/06 11:07:17;;;;;;;6.10;5.50;;;19.00;97.70;;;;;;4971874;28;20096;-87
2022/05/06 11:09:42;;;;;;;7.85;5.90;;;19.10;97.50;;;;;;4970124;28;20199;-87
2022/05/06 11:12:09;;;;;;;6.10;5.47;;;19.20;97.50;;;;;;4964897;28;20117;-88
2022/05/06 11:14:34;;;;;;;6.68;5.32;;;19.30;96.90;;;;;;4966982;28;20130;-86
2022/05/06 11:17:18;;;;;;;8.00;4.28;;;19.30;96.80;;;;;;4973471;28;20031;-86
2022/05/06 11:19:43;;;;;;;5.80;4.38;;;19.30;96.80;;;;;;4972104;28;20109;-87
2022/05/06 11:22:10;;;;;;;5.93;3.97;;;19.30;96.10;;;;;;4970152;28;20113;-88
2022/05/06 11:24:36;;;;;;;6.28;3.80;;;19.30;96.00;;;;;;4965440;28;20125;-87
2022/05/06 11:27:19;;;;;;;5.18;3.17;;;19.40;95.50;;;;;;4965469;28;20033;-87
2022/05/06 11:29:58;;;;;;;3.75;1.90;;;19.40;95.40;;;;;;4970260;28;20098;-87
2022/05/06 11:32:28;;;;;;;5.65;2.47;;;19.50;94.80;;;;;;4977145;28;20164;-86
2022/05/06 11:35:10;;;;;;;4.22;3.10;;;19.60;94.10;;;;;;4973958;28;20027;-87
2022/05/06 11:37:40;;;;;;;4.07;1.80;;;19.60;93.80;;;;;;4967739;28;20117;-88
2022/05/06 11:40:18;;;;;;;2.60;1.70;;;19.60;93.40;;;;;;4973138;28;20061;-89
2022/05/06 11:42:45;;;;;;;1.88;1.02;;;19.60;93.10;;;;;;4976012;28;20494;-89
2022/05/06 11:48:07;;;;;;;5.05;2.88;;;19.70;92.00;;;;;;4981568;28;20502;-88
2022/05/06 11:50:34;;;;;;;4.38;3.90;;;19.60;92.20;;;;;;4970577;28;20030;-88
2022/05/06 11:53:04;;;;;;;5.50;4.35;;;19.70;92.20;;;;;;4969167;28;20042;-88
2022/05/06 11:55:31;;;;;;;6.55;4.32;;;19.80;92.30;;;;;;4969216;28;20118;-88
2022/05/06 11:57:56;;;;;;;7.05;5.43;;;19.80;92.40;;;;;;4967555;28;20530;-88
2022/05/06 12:00:23;;;;;;;5.65;5.10;;;19.80;91.30;;;;;;4971112;28;20117;-88
2022/05/06 12:02:50;;;;;;;5.65;3.92;;;19.70;91.10;;;;;;4967729;28;20019;-88
2022/05/06 12:05:16;;;;;;;5.47;3.83;;;19.70;91.40;;;;;;4964627;28;20023;-89
2022/05/06 12:07:44;;;;;;;6.35;4.65;;;19.80;91.20;;;;;;4969707;28;20037;-88
2022/05/06 12:10:10;;;;;;;6.38;5.35;;;19.80;91.00;;;;;;4964048;28;20026;-88
2022/05/06 12:12:55;;;;;;;4.97;4.30;;;19.90;90.50;;;;;;4967021;28;20038;-89
2022/05/06 12:15:27;;;;;;;8.25;6.10;;;20.00;90.20;;;;;;4970062;28;20136;-89
2022/05/06 12:18:19;;;;;;;13.52;6.80;;;20.00;90.40;;;;;;4966966;28;20085;-88
2022/05/06 12:20:46;;;;;;;6.90;4.70;;;20.10;90.00;;;;;;4972640;28;20301;-88
2022/05/06 12:23:13;;;;;;;6.40;4.90;;;20.10;88.80;;;;;;4968930;28;20118;-87
2022/05/06 12:25:40;;;;;;;7.65;5.47;;;20.10;88.80;;;;;;4974223;28;20030;-87
2022/05/06 12:28:18;;;;;;;8.52;6.38;;;20.10;89.00;;;;;;4965371;28;20027;-88
2022/05/06 12:30:45;;;;;;;7.30;5.05;;;20.20;88.60;;;;;;4981768;28;20034;-88
2022/05/06 12:33:17;;;;;;;7.50;5.95;;;20.10;89.00;;;;;;4966487;28;20051;-88
2022/05/06 12:36:06;;;;;;;6.55;5.13;;;20.20;88.20;;;;;;4967317;28;20018;-89
2022/05/06 12:38:44;;;;;;;9.15;6.07;;;20.30;88.50;;;;;;4960540;28;20035;-88
2022/05/06 12:41:25;;;;;;;6.40;5.20;;;20.40;87.40;;;;;;4978652;28;20169;-88
2022/05/06 12:43:52;;;;;;;6.68;5.20;;;20.50;87.20;;;;;;4967766;28;20057;-88
2022/05/06 12:46:31;;;;;;;6.93;5.13;;;20.60;86.50;;;;;;4966294;28;20026;-88
2022/05/06 12:51:44;;;;;;;8.30;4.80;;;20.60;85.20;;;;;;4986403;28;20041;-87
2022/05/06 12:54:10;;;;;;;7.05;4.47;;;20.60;85.20;;;;;;4976683;28;20497;-88
2022/05/06 12:56:37;;;;;;;6.80;4.47;;;20.60;85.10;;;;;;4968521;28;20113;-88
2022/05/06 12:59:03;;;;;;;6.65;4.40;;;20.70;84.40;;;;;;4974690;28;20030;-88
2022/05/06 13:01:29;;;;;;;7.68;4.88;;;20.70;83.70;;;;;;4970940;28;20022;-88
2022/05/06 13:03:55;;;;;;;6.55;3.97;;;20.60;82.40;;;;;;4964771;28;20026;-86
2022/05/06 13:06:21;;;;;;;6.75;3.33;;;20.60;81.00;;;;;;4962052;28;20590;-88
2022/05/06 13:08:47;;;;;;;7.95;3.33;;;20.60;80.10;;;;;;4964769;28;20486;-88
2022/05/06 13:11:12;;;;;;;50.95;5.53;;;20.60;79.40;;;;;;4968056;28;20093;-88
2022/05/06 13:13:38;;;;;;;6.15;3.08;;;20.70;79.30;;;;;;4976016;28;20038;-88
2022/05/06 13:16:04;;;;;;;6.03;3.63;;;20.80;77.50;;;;;;4969180;28;20475;-86
2022/05/06 13:18:30;;;;;;;8.75;4.65;;;21.00;78.00;;;;;;4972044;28;20035;-88
2022/05/06 13:20:56;;;;;;;7.75;3.67;;;21.30;77.50;;;;;;4968271;28;20065;-88
2022/05/06 13:23:22;;;;;;;10.25;5.07;;;21.50;75.90;;;;;;4977531;28;20058;-88
2022/05/06 13:25:48;;;;;;;5.63;3.38;;;21.50;74.70;;;;;;4972812;28;20019;-88